Time;durP1;ratioP1;P1;durP2;ratioP2;P2;SDS_P1;SDS_P2;PMS_P1;PMS_P2;Temp;Humidity;BMP_temperature;BMP_pressure;BME280_temperature;BME280_humidity;BME280_pressure;Samples;Min_cycle;Max_cycle;Signal;HPM_P1;HPM_P2
2021/08/23 00:01:47;;;;;;;;;;;;;;;22.01;50.99;102002.88;5074334;28;20346;-69
2021/08/23 00:04:16;;;;;;;;;;;;;;;22.00;51.33;102000.28;5064015;28;19934;-69
2021/08/23 00:06:44;;;;;;;;;;;;;;;22.02;51.17;102001.03;5065594;28;19936;-69
2021/08/23 00:09:12;;;;;;;;;;;;;;;22.01;51.13;101996.59;5066782;28;20296;-69
2021/08/23 00:11:40;;;;;;;;;;;;;;;22.01;51.05;102002.88;5069612;28;20023;-69
2021/08/23 00:14:07;;;;;;;;;;;;;;;22.02;51.09;102004.63;5068839;28;19952;-69
2021/08/23 00:16:35;;;;;;;;;;;;;;;22.01;50.92;102005.56;5069799;28;19967;-69
2021/08/23 00:19:03;;;;;;;;;;;;;;;22.01;50.96;102005.56;5063224;28;20312;-69
2021/08/23 00:21:41;;;;;;;;;;;;;;;22.01;50.72;102008.28;5064342;28;20030;-69
2021/08/23 00:24:21;;;;;;;;;;;;;;;22.00;50.28;102006.53;5063384;28;19925;-69
2021/08/23 00:26:50;;;;;;;;;;;;;;;22.01;50.40;102010.06;5069781;28;19925;-69
2021/08/23 00:29:18;;;;;;;;;;;;;;;21.99;50.35;102010.16;5066471;28;19963;-69
2021/08/23 00:31:46;;;;;;;;;;;;;;;22.00;50.35;102009.22;5065030;28;19929;-69
2021/08/23 00:34:14;;;;;;;;;;;;;;;22.01;50.55;102020.84;5061172;28;20225;-70
2021/08/23 00:36:43;;;;;;;;;;;;;;;22.00;50.65;102011.91;5067196;28;20468;-69
2021/08/23 00:39:12;;;;;;;;;;;;;;;22.00;50.20;102014.59;5064563;28;19925;-69
2021/08/23 00:41:41;;;;;;;;;;;;;;;22.00;50.64;102014.59;5065465;28;19964;-69
2021/08/23 00:44:09;;;;;;;;;;;;;;;22.00;50.17;102014.59;5068887;28;19928;-70
2021/08/23 00:46:41;;;;;;;;;;;;;;;22.01;50.08;102016.34;5060745;28;19979;-70
2021/08/23 00:49:09;;;;;;;;;;;;;;;22.00;50.18;102013.75;5061229;28;19960;-70
2021/08/23 00:51:37;;;;;;;;;;;;;;;22.01;49.79;102021.75;5067895;28;19932;-69
2021/08/23 00:54:06;;;;;;;;;;;;;;;22.01;49.99;102024.44;5065659;28;20019;-70
2021/08/23 00:56:34;;;;;;;;;;;;;;;22.01;49.85;102021.75;5063822;28;20452;-70
2021/08/23 00:59:08;;;;;;;;;;;;;;;22.01;50.34;102018.16;5066820;28;20020;-70
2021/08/23 01:01:42;;;;;;;;;;;;;;;22.00;48.97;102028.06;5061980;28;19925;-71
2021/08/23 01:04:15;;;;;;;;;;;;;;;21.99;49.56;102026.34;5059212;28;19928;-70
2021/08/23 01:06:44;;;;;;;;;;;;;;;22.01;49.33;102026.25;5063826;28;19935;-69
2021/08/23 01:09:15;;;;;;;;;;;;;;;22.00;48.93;102033.47;5065749;28;19928;-69
2021/08/23 01:11:47;;;;;;;;;;;;;;;22.01;49.06;102026.25;5065127;28;19931;-69
2021/08/23 01:14:15;;;;;;;;;;;;;;;22.00;49.49;102022.69;5064031;28;19935;-71
2021/08/23 01:16:43;;;;;;;;;;;;;;;22.01;49.59;102028.94;5065840;28;19936;-70
2021/08/23 01:19:11;;;;;;;;;;;;;;;22.00;49.51;102020.00;5066329;28;20004;-70
2021/08/23 01:21:39;;;;;;;;;;;;;;;22.01;50.03;102028.94;5068043;28;20390;-71
2021/08/23 01:24:08;;;;;;;;;;;;;;;22.01;49.72;102023.53;5067146;28;20219;-70
2021/08/23 01:26:40;;;;;;;;;;;;;;;22.01;49.61;102028.94;5062913;28;20370;-71
2021/08/23 01:29:12;;;;;;;;;;;;;;;22.01;49.65;102029.81;5059371;28;19924;-70
2021/08/23 01:31:42;;;;;;;;;;;;;;;22.01;49.57;102028.94;5060969;28;19931;-71
2021/08/23 01:34:13;;;;;;;;;;;;;;;22.00;49.67;102030.78;5064968;28;19924;-70
2021/08/23 01:36:41;;;;;;;;;;;;;;;22.01;49.81;102032.50;5067541;28;19971;-71
2021/08/23 01:39:09;;;;;;;;;;;;;;;21.99;49.54;102029.03;5064616;28;20019;-70
2021/08/23 01:41:37;;;;;;;;;;;;;;;22.00;49.71;102029.91;5061014;28;19928;-70
2021/08/23 01:44:05;;;;;;;;;;;;;;;22.00;49.55;102030.78;5062951;28;19928;-70
2021/08/23 01:46:33;;;;;;;;;;;;;;;21.99;49.39;102026.34;5064908;28;19933;-71
2021/08/23 01:49:01;;;;;;;;;;;;;;;21.99;49.35;102033.56;5065410;28;19938;-72
2021/08/23 01:51:31;;;;;;;;;;;;;;;22.00;49.55;102032.59;5069115;28;19978;-70
2021/08/23 01:53:58;;;;;;;;;;;;;;;21.99;49.92;102031.72;5066873;28;20519;-70
2021/08/23 01:56:27;;;;;;;;;;;;;;;21.99;49.18;102026.34;5063212;28;20015;-70
2021/08/23 01:58:55;;;;;;;;;;;;;;;21.99;49.36;102026.34;5058994;28;20039;-71
2021/08/23 02:01:22;;;;;;;;;;;;;;;21.99;49.64;102030.88;5065485;28;19948;-71
2021/08/23 02:03:51;;;;;;;;;;;;;;;22.00;49.33;102027.22;5066037;28;20306;-71
2021/08/23 02:06:18;;;;;;;;;;;;;;;21.99;49.24;102031.72;5065515;28;20035;-70
2021/08/23 02:08:48;;;;;;;;;;;;;;;22.00;49.78;102028.06;5066923;28;19928;-71
2021/08/23 02:11:16;;;;;;;;;;;;;;;21.98;49.74;102032.66;5060349;28;20023;-69
2021/08/23 02:13:43;;;;;;;;;;;;;;;21.99;50.30;102036.25;5059233;28;19986;-70
2021/08/23 02:16:11;;;;;;;;;;;;;;;21.98;49.77;102029.97;5065199;28;19931;-70
2021/08/23 02:18:39;;;;;;;;;;;;;;;21.97;49.73;102030.94;5061495;28;19938;-70
2021/08/23 02:21:07;;;;;;;;;;;;;;;21.97;49.40;102038.16;5061880;28;19931;-71
2021/08/23 02:23:35;;;;;;;;;;;;;;;21.98;49.75;102039.88;5063396;28;20658;-71
2021/08/23 02:26:05;;;;;;;;;;;;;;;21.97;49.67;102040.84;5058975;28;20254;-70
2021/08/23 02:28:33;;;;;;;;;;;;;;;21.97;49.50;102047.13;5062855;28;20046;-71
2021/08/23 02:31:00;;;;;;;;;;;;;;;21.96;49.05;102039.09;5066469;28;19928;-71
2021/08/23 02:33:28;;;;;;;;;;;;;;;21.97;49.42;102044.41;5065311;28;19928;-72
2021/08/23 02:35:56;;;;;;;;;;;;;;;21.96;49.40;102047.16;5062537;28;20019;-72
2021/08/23 02:38:24;;;;;;;;;;;;;;;21.96;49.52;102037.28;5060371;28;19968;-71
2021/08/23 02:40:52;;;;;;;;;;;;;;;21.96;49.76;102044.47;5059266;28;20011;-71
2021/08/23 02:43:22;;;;;;;;;;;;;;;21.96;49.97;102050.75;5063949;28;19936;-71
2021/08/23 02:45:50;;;;;;;;;;;;;;;21.97;49.94;102057.00;5061709;28;19971;-71
2021/08/23 02:48:18;;;;;;;;;;;;;;;21.96;49.84;102049.88;5065188;28;19935;-70
2021/08/23 02:50:45;;;;;;;;;;;;;;;21.94;50.17;102047.25;5067226;28;20019;-71
2021/08/23 02:53:15;;;;;;;;;;;;;;;21.95;49.75;102048.16;5062475;28;19964;-70
2021/08/23 02:55:43;;;;;;;;;;;;;;;21.95;49.62;102049.00;5062978;28;19928;-70
2021/08/23 02:58:11;;;;;;;;;;;;;;;21.95;49.74;102053.53;5066721;28;19964;-72
2021/08/23 03:00:40;;;;;;;;;;;;;;;21.95;49.40;102045.47;5065245;28;19924;-71
2021/08/23 03:03:08;;;;;;;;;;;;;;;21.93;49.14;102045.53;5060486;28;19985;-72
2021/08/23 03:05:36;;;;;;;;;;;;;;;21.94;49.04;102049.97;5067724;28;19924;-71
2021/08/23 03:08:04;;;;;;;;;;;;;;;21.92;48.56;102035.72;5053526;28;19963;-70
2021/08/23 03:10:35;;;;;;;;;;;;;;;21.92;48.97;102043.81;5062608;28;19955;-70
2021/08/23 03:13:05;;;;;;;;;;;;;;;21.92;48.94;102038.41;5064066;28;19928;-71
2021/08/23 03:15:33;;;;;;;;;;;;;;;21.93;48.93;102047.34;5063332;28;20346;-70
2021/08/23 03:18:03;;;;;;;;;;;;;;;21.93;49.32;102044.66;5065930;28;19935;-71
2021/08/23 03:20:31;;;;;;;;;;;;;;;21.93;49.11;102042.84;5057067;28;19936;-71
2021/08/23 03:22:59;;;;;;;;;;;;;;;21.93;49.36;102050.94;5061225;28;19979;-72
2021/08/23 03:25:26;;;;;;;;;;;;;;;21.93;49.25;102052.75;5066894;28;19929;-72
2021/08/23 03:27:54;;;;;;;;;;;;;;;21.92;49.28;102049.19;5066288;28;19967;-72
2021/08/23 03:30:23;;;;;;;;;;;;;;;21.92;49.49;102048.31;5064770;28;19929;-72
2021/08/23 03:32:51;;;;;;;;;;;;;;;21.92;49.50;102056.38;5066415;28;20621;-71
2021/08/23 03:35:20;;;;;;;;;;;;;;;21.91;49.92;102047.44;5059946;28;19974;-72
2021/08/23 03:37:48;;;;;;;;;;;;;;;21.91;49.36;102051.97;5058346;28;20349;-71
2021/08/23 03:40:16;;;;;;;;;;;;;;;21.89;49.15;102050.22;5069396;28;19933;-72
2021/08/23 03:42:45;;;;;;;;;;;;;;;21.91;49.15;102060.91;5067762;28;20287;-72
2021/08/23 03:45:13;;;;;;;;;;;;;;;21.90;49.14;102056.47;5070181;28;19924;-72
2021/08/23 03:47:40;;;;;;;;;;;;;;;21.89;49.06;102063.69;5070303;28;20410;-71
2021/08/23 03:50:09;;;;;;;;;;;;;;;21.88;49.11;102056.56;5062352;28;20308;-71
2021/08/23 03:52:38;;;;;;;;;;;;;;;21.89;49.36;102058.31;5066313;28;20689;-72
2021/08/23 03:55:07;;;;;;;;;;;;;;;21.88;49.32;102059.25;5069581;28;19936;-72
2021/08/23 03:57:36;;;;;;;;;;;;;;;21.90;49.38;102061.84;5067680;28;20018;-72
2021/08/23 04:00:05;;;;;;;;;;;;;;;21.87;49.42;102068.28;5069323;28;20313;-72
2021/08/23 04:02:33;;;;;;;;;;;;;;;21.88;49.54;102071.88;5065808;28;19968;-73
2021/08/23 04:05:01;;;;;;;;;;;;;;;21.88;49.81;102075.41;5064599;28;20001;-68
2021/08/23 04:07:29;;;;;;;;;;;;;;;21.90;49.54;102080.72;5063399;28;19993;-69
2021/08/23 04:09:58;;;;;;;;;;;;;;;21.90;49.80;102078.03;5068032;28;19951;-65
2021/08/23 04:12:26;;;;;;;;;;;;;;;21.91;49.40;102076.22;5068550;28;19936;-67
2021/08/23 04:14:54;;;;;;;;;;;;;;;21.92;49.30;102077.94;5068640;28;20349;-68
2021/08/23 04:17:22;;;;;;;;;;;;;;;21.92;49.63;102086.91;5055967;28;19984;-68
2021/08/23 04:19:51;;;;;;;;;;;;;;;21.92;49.28;102084.22;5054382;28;20285;-67
2021/08/23 04:22:19;;;;;;;;;;;;;;;21.92;49.00;102086.91;5060395;28;19935;-67
2021/08/23 04:24:46;;;;;;;;;;;;;;;21.93;49.50;102087.75;5063781;28;19993;-67
2021/08/23 04:27:16;;;;;;;;;;;;;;;21.92;49.52;102089.59;5058992;28;19932;-68
2021/08/23 04:29:44;;;;;;;;;;;;;;;21.92;49.57;102086.91;5061991;28;19974;-68
2021/08/23 04:32:12;;;;;;;;;;;;;;;21.92;49.69;102089.59;5060862;28;19925;-68
2021/08/23 04:34:39;;;;;;;;;;;;;;;21.92;49.77;102088.72;5059255;28;19983;-68
2021/08/23 04:37:07;;;;;;;;;;;;;;;21.92;49.53;102094.97;5064194;28;19924;-68
2021/08/23 04:39:35;;;;;;;;;;;;;;;21.92;49.30;102091.41;5066303;28;20015;-68
2021/08/23 04:42:03;;;;;;;;;;;;;;;21.90;49.23;102094.19;5061730;28;19935;-68
2021/08/23 04:44:33;;;;;;;;;;;;;;;21.88;49.32;102096.97;5065150;28;19959;-68
2021/08/23 04:47:00;;;;;;;;;;;;;;;21.88;49.16;102096.97;5060389;28;20273;-67
2021/08/23 04:49:28;;;;;;;;;;;;;;;21.91;49.21;102097.78;5066406;28;20013;-68
2021/08/23 04:51:57;;;;;;;;;;;;;;;21.91;49.45;102101.31;5067455;28;19985;-67
2021/08/23 04:54:25;;;;;;;;;;;;;;;21.88;49.26;102106.88;5067212;28;19929;-68
2021/08/23 04:56:53;;;;;;;;;;;;;;;21.92;49.43;102110.25;5067655;28;20400;-68
2021/08/23 04:59:21;;;;;;;;;;;;;;;21.91;49.41;102114.78;5061908;28;19932;-67
2021/08/23 05:01:50;;;;;;;;;;;;;;;21.91;49.43;102114.78;5066335;28;19929;-67
2021/08/23 05:04:18;;;;;;;;;;;;;;;21.91;49.51;102114.78;5063216;28;19959;-68
2021/08/23 05:06:46;;;;;;;;;;;;;;;21.91;49.59;102119.31;5070062;28;19928;-67
2021/08/23 05:09:14;;;;;;;;;;;;;;;21.92;49.61;102118.34;5066253;28;19924;-67
2021/08/23 05:11:41;;;;;;;;;;;;;;;21.92;49.71;102138.09;5065813;28;19970;-69
2021/08/23 05:14:09;;;;;;;;;;;;;;;21.92;49.53;102142.59;5059142;28;20020;-68
2021/08/23 05:16:37;;;;;;;;;;;;;;;21.92;49.61;102139.88;5062954;28;19929;-67
2021/08/23 05:19:07;;;;;;;;;;;;;;;21.92;49.56;102139.88;5066691;28;20031;-68
2021/08/23 05:21:35;;;;;;;;;;;;;;;21.93;49.73;102139.84;5066144;28;19936;-67
2021/08/23 05:24:03;;;;;;;;;;;;;;;21.97;51.26;102143.22;5065926;28;19929;-67
2021/08/23 05:26:31;;;;;;;;;;;;;;;21.97;50.14;102130.63;5065538;28;19944;-67
2021/08/23 05:28:59;;;;;;;;;;;;;;;22.00;50.34;102137.69;5058947;28;20028;-67
2021/08/23 05:31:26;;;;;;;;;;;;;;;22.00;50.49;102140.38;5068029;28;19924;-67
2021/08/23 05:33:54;;;;;;;;;;;;;;;22.01;50.86;102147.47;5064549;28;19928;-68
2021/08/23 05:36:24;;;;;;;;;;;;;;;22.02;51.01;102142.03;5069999;28;20299;-68
2021/08/23 05:38:51;;;;;;;;;;;;;;;22.03;51.56;102149.13;5059953;28;19971;-67
2021/08/23 05:41:19;;;;;;;;;;;;;;;22.03;51.74;102143.75;5064430;28;19947;-66
2021/08/23 05:43:47;;;;;;;;;;;;;;;22.05;51.86;102149.06;5061292;28;20007;-67
2021/08/23 05:46:19;;;;;;;;;;;;;;;22.06;52.10;102148.09;5069142;28;20296;-65
2021/08/23 05:48:47;;;;;;;;;;;;;;;22.07;52.19;102149.00;5060741;28;19929;-67
2021/08/23 05:51:15;;;;;;;;;;;;;;;22.07;52.50;102147.16;5062832;28;20027;-67
2021/08/23 05:53:45;;;;;;;;;;;;;;;22.10;53.44;102155.06;5059303;28;19928;-68
2021/08/23 05:56:13;;;;;;;;;;;;;;;22.10;53.21;102152.38;5057063;28;19994;-68
2021/08/23 05:58:41;;;;;;;;;;;;;;;22.08;51.81;102148.03;5064721;28;20285;-68
2021/08/23 06:01:08;;;;;;;;;;;;;;;22.07;51.66;102147.16;5062520;28;19961;-68
2021/08/23 06:03:37;;;;;;;;;;;;;;;22.08;51.68;102153.44;5065976;28;20312;-68
2021/08/23 06:06:05;;;;;;;;;;;;;;;22.07;52.29;102147.16;5064697;28;19933;-63
2021/08/23 06:08:33;;;;;;;;;;;;;;;22.05;50.49;102155.31;5061370;28;20016;-68
2021/08/23 06:11:02;;;;;;;;;;;;;;;22.04;48.63;102148.19;5060440;28;20095;-67
2021/08/23 06:13:31;;;;;;;;;;;;;;;22.05;49.34;102154.47;5068441;28;19929;-67
2021/08/23 06:15:59;;;;;;;;;;;;;;;22.04;50.13;102145.50;5064232;28;19978;-67
2021/08/23 06:18:27;;;;;;;;;;;;;;;22.05;49.88;102157.16;5067756;28;20604;-67
2021/08/23 06:20:57;;;;;;;;;;;;;;;22.06;49.71;102156.19;5067103;28;19967;-67
2021/08/23 06:23:25;;;;;;;;;;;;;;;22.07;49.69;102166.00;5063010;28;20365;-67
2021/08/23 06:25:53;;;;;;;;;;;;;;;22.07;49.81;102162.47;5063752;28;19924;-67
2021/08/23 06:28:23;;;;;;;;;;;;;;;22.08;49.68;102169.59;5065444;28;20301;-67
2021/08/23 06:30:51;;;;;;;;;;;;;;;22.10;49.92;102171.22;5059344;28;19982;-69
2021/08/23 06:33:19;;;;;;;;;;;;;;;22.10;50.16;102165.84;5067735;28;19935;-66
2021/08/23 06:35:46;;;;;;;;;;;;;;;22.09;49.98;102164.13;5068786;28;19932;-66
2021/08/23 06:38:14;;;;;;;;;;;;;;;22.12;50.46;102172.03;5062369;28;19928;-65
2021/08/23 06:40:42;;;;;;;;;;;;;;;22.13;50.41;102167.50;5065342;28;19932;-65
2021/08/23 06:43:10;;;;;;;;;;;;;;;22.13;50.30;102167.50;5067190;28;20043;-65
2021/08/23 06:45:39;;;;;;;;;;;;;;;22.14;50.28;102167.44;5066601;28;19959;-66
2021/08/23 06:48:08;;;;;;;;;;;;;;;22.15;50.36;102165.59;5064907;28;20455;-64
2021/08/23 06:50:35;;;;;;;;;;;;;;;22.15;50.56;102171.84;5062519;28;19974;-65
2021/08/23 06:53:03;;;;;;;;;;;;;;;22.17;50.95;102178.03;5061873;28;19928;-65
2021/08/23 06:55:32;;;;;;;;;;;;;;;22.17;51.05;102172.66;5066694;28;19995;-65
2021/08/23 06:58:00;;;;;;;;;;;;;;;22.20;51.42;102175.16;5068429;28;19932;-68
2021/08/23 07:00:28;;;;;;;;;;;;;;;22.23;51.11;102179.53;5055697;28;20384;-67
2021/08/23 07:03:00;;;;;;;;;;;;;;;22.21;51.16;102174.22;5034469;28;20033;-67
2021/08/23 07:05:28;;;;;;;;;;;;;;;22.21;51.14;102170.66;5036222;28;19941;-67
2021/08/23 07:07:55;;;;;;;;;;;;;;;22.24;51.10;102177.72;5037132;28;19936;-67
2021/08/23 07:10:24;;;;;;;;;;;;;;;22.24;51.07;102175.03;5044078;28;19932;-66
2021/08/23 07:12:54;;;;;;;;;;;;;;;22.24;51.17;102188.50;5044105;28;19939;-66
2021/08/23 07:15:22;;;;;;;;;;;;;;;22.24;50.87;102189.34;5042494;28;19924;-67
2021/08/23 07:17:50;;;;;;;;;;;;;;;22.24;50.53;102183.97;5042812;28;19975;-67
2021/08/23 07:20:22;;;;;;;;;;;;;;;22.25;50.18;102191.09;5043116;28;20465;-67
2021/08/23 07:22:50;;;;;;;;;;;;;;;22.26;50.06;102184.78;5045496;28;20445;-67
2021/08/23 07:25:19;;;;;;;;;;;;;;;22.27;50.09;102191.88;5053542;28;19939;-67
2021/08/23 07:27:46;;;;;;;;;;;;;;;22.28;50.30;102184.69;5046255;28;19976;-67
2021/08/23 07:30:15;;;;;;;;;;;;;;;22.29;50.63;102186.44;5044726;28;19959;-67
2021/08/23 07:32:43;;;;;;;;;;;;;;;22.30;50.85;102198.94;5037875;28;19948;-67
2021/08/23 07:35:11;;;;;;;;;;;;;;;22.30;50.97;102202.50;5035103;28;19990;-67
2021/08/23 07:37:45;;;;;;;;;;;;;;;22.31;50.81;102200.69;5046633;28;19964;-67
2021/08/23 07:40:14;;;;;;;;;;;;;;;22.32;50.45;102197.88;5042572;28;19964;-67
2021/08/23 07:42:42;;;;;;;;;;;;;;;22.33;50.34;102207.72;5043266;28;20359;-67
2021/08/23 07:45:10;;;;;;;;;;;;;;;22.34;50.38;102195.13;5041481;28;20023;-67
2021/08/23 07:47:39;;;;;;;;;;;;;;;22.33;50.37;102199.63;5041874;28;20031;-67
2021/08/23 07:50:08;;;;;;;;;;;;;;;22.35;50.26;102210.34;5037501;28;20036;-67
2021/08/23 07:52:36;;;;;;;;;;;;;;;22.35;50.17;102210.34;5048784;28;19928;-67
2021/08/23 07:55:06;;;;;;;;;;;;;;;22.36;50.50;102213.00;5046731;28;19951;-67
2021/08/23 07:57:34;;;;;;;;;;;;;;;22.37;50.39;102217.41;5047006;28;20094;-67
2021/08/23 08:00:02;;;;;;;;;;;;;;;22.38;50.28;102216.47;5050012;28;19936;-67
2021/08/23 08:02:38;;;;;;;;;;;;;;;22.40;50.34;102221.78;5043336;28;19933;-67
2021/08/23 08:05:07;;;;;;;;;;;;;;;22.40;50.44;102219.06;5037469;28;20005;-67
2021/08/23 08:07:35;;;;;;;;;;;;;;;22.42;50.45;102224.38;5041123;28;19947;-66
2021/08/23 08:10:03;;;;;;;;;;;;;;;22.44;50.69;102219.78;5038742;28;19932;-67
2021/08/23 08:12:33;;;;;;;;;;;;;;;22.45;51.01;102210.75;5040533;28;20367;-66
2021/08/23 08:15:02;;;;;;;;;;;;;;;22.46;50.66;102212.50;5038324;28;19966;-67
2021/08/23 08:17:30;;;;;;;;;;;;;;;22.46;50.41;102210.66;5039730;28;20043;-67
2021/08/23 08:19:58;;;;;;;;;;;;;;;22.46;49.95;102220.59;5039703;28;20050;-67
2021/08/23 08:22:25;;;;;;;;;;;;;;;22.47;49.73;102212.41;5043499;28;20463;-67
2021/08/23 08:24:53;;;;;;;;;;;;;;;22.47;49.88;102217.81;5053143;28;19937;-67
2021/08/23 08:27:21;;;;;;;;;;;;;;;22.48;50.06;102211.47;5059266;28;19939;-67
2021/08/23 08:29:51;;;;;;;;;;;;;;;22.49;50.54;102212.31;5043230;28;19925;-67
2021/08/23 08:32:20;;;;;;;;;;;;;;;22.51;50.69;102213.09;5051568;28;19939;-67
2021/08/23 08:34:48;;;;;;;;;;;;;;;22.53;50.59;102211.19;5048012;28;19932;-67
2021/08/23 08:37:15;;;;;;;;;;;;;;;22.54;50.36;102210.25;5047667;28;19978;-67
2021/08/23 08:39:43;;;;;;;;;;;;;;;22.54;50.23;102208.41;5049235;28;19932;-67
2021/08/23 08:42:11;;;;;;;;;;;;;;;22.56;50.07;102211.00;5048110;28;20023;-67
2021/08/23 08:44:40;;;;;;;;;;;;;;;22.57;50.35;102207.38;5050801;28;19932;-67
2021/08/23 08:47:10;;;;;;;;;;;;;;;22.59;50.38;102207.28;5052397;28;19933;-67
2021/08/23 08:49:39;;;;;;;;;;;;;;;22.59;50.05;102204.59;5041722;28;19951;-67
2021/08/23 08:52:08;;;;;;;;;;;;;;;22.61;50.10;102202.69;5050206;28;20018;-67
2021/08/23 08:54:36;;;;;;;;;;;;;;;22.62;50.08;102204.44;5047748;28;19932;-67
2021/08/23 08:57:04;;;;;;;;;;;;;;;22.64;50.10;102213.28;5044761;28;19955;-67
2021/08/23 08:59:34;;;;;;;;;;;;;;;22.65;49.85;102220.44;5036846;28;19932;-67
2021/08/23 09:02:02;;;;;;;;;;;;;;;22.66;49.77;102214.09;5045561;28;19932;-66
2021/08/23 09:04:35;;;;;;;;;;;;;;;22.66;49.72;102214.94;5046492;28;19939;-67
2021/08/23 09:07:07;;;;;;;;;;;;;;;22.68;50.12;102217.56;5051686;28;19990;-67
2021/08/23 09:09:35;;;;;;;;;;;;;;;22.69;50.12;102212.09;5048919;28;20021;-67
2021/08/23 09:12:04;;;;;;;;;;;;;;;22.71;50.29;102212.00;5041393;28;21052;-67
2021/08/23 09:14:33;;;;;;;;;;;;;;;22.73;50.51;102215.47;5041738;28;20013;-67
2021/08/23 09:18:32;;;;;;;;;;;;;;;22.91;49.55;102218.97;5121374;27;19931;-64
2021/08/23 09:21:01;;;;;;;;;;;;;;;22.90;49.62;102210.97;5114772;27;19931;-64
2021/08/23 09:23:34;;;;;;;;;;;;;;;22.90;49.43;102216.38;5117591;27;19931;-64
2021/08/23 09:26:05;;;;;;;;;;;;;;;22.86;49.79;102224.66;5114790;27;19927;-64
2021/08/23 09:28:34;;;;;;;;;;;;;;;22.88;50.13;102216.47;5109268;27;19932;-63
2021/08/23 09:31:03;;;;;;;;;;;;;;;22.93;50.15;102219.78;5115666;27;20009;-65
2021/08/23 09:33:40;;;;;;;;;;;;;;;22.98;50.15;102212.28;5114612;27;20350;-64
2021/08/23 09:36:08;;;;;;;;;;;;;;;23.00;49.99;102218.44;5116097;27;19939;-63
2021/08/23 09:38:36;;;;;;;;;;;;;;;22.97;49.51;102213.25;5113473;27;19937;-64
2021/08/23 09:41:05;;;;;;;;;;;;;;;22.96;49.38;102221.44;5109649;27;19970;-64
2021/08/23 09:43:35;;;;;;;;;;;;;;;22.96;49.20;102219.59;5116312;27;20029;-64
2021/08/23 09:46:10;;;;;;;;;;;;;;;22.94;49.24;102218.78;5119579;27;19938;-64
2021/08/23 09:48:51;;;;;;;;;;;;;;;22.94;49.25;102217.94;5120343;27;20497;-64
2021/08/23 09:51:26;;;;;;;;;;;;;;;22.96;49.44;102230.38;5115080;27;19938;-63
2021/08/23 09:54:04;;;;;;;;;;;;;;;22.97;49.99;102226.72;5111922;27;20308;-62
2021/08/23 09:56:33;;;;;;;;;;;;;;;22.99;49.83;102226.63;5114388;27;19953;-63
2021/08/23 09:59:01;;;;;;;;;;;;;;;22.98;49.56;102220.38;5116922;27;20476;-62
2021/08/23 10:01:30;;;;;;;;;;;;;;;23.00;49.42;102231.94;5115704;27;19938;-63
2021/08/23 10:04:02;;;;;;;;;;;;;;;23.01;49.21;102222.03;5114662;27;19931;-62
2021/08/23 10:06:31;;;;;;;;;;;;;;;23.04;49.58;102227.25;5112542;27;20547;-62
2021/08/23 10:09:00;;;;;;;;;;;;;;;23.06;49.53;102219.94;5106859;27;20014;-62
2021/08/23 10:11:28;;;;;;;;;;;;;;;23.05;49.35;102231.69;5113042;27;19927;-62
2021/08/23 10:13:56;;;;;;;;;;;;;;;23.05;49.19;102229.00;5112656;27;20053;-62
2021/08/23 10:16:24;;;;;;;;;;;;;;;23.04;49.31;102230.81;5114574;27;19931;-62
2021/08/23 10:18:53;;;;;;;;;;;;;;;23.07;49.11;102228.91;5114027;27;19937;-62
2021/08/23 10:21:23;;;;;;;;;;;;;;;23.08;48.75;102228.81;5109547;27;19931;-61
2021/08/23 10:23:51;;;;;;;;;;;;;;;23.10;48.87;102226.03;5111160;27;20042;-63
2021/08/23 10:26:21;;;;;;;;;;;;;;;23.11;48.89;102228.63;5117704;27;19927;-62
2021/08/23 10:28:49;;;;;;;;;;;;;;;23.14;49.11;102230.31;5112579;27;20030;-62
2021/08/23 10:31:18;;;;;;;;;;;;;;;23.16;49.20;102231.09;5106303;27;20003;-63
2021/08/23 10:33:47;;;;;;;;;;;;;;;23.18;49.46;102227.34;5103056;27;20010;-63
2021/08/23 10:36:17;;;;;;;;;;;;;;;23.20;49.28;102228.13;5100875;27;19963;-63
2021/08/23 10:38:46;;;;;;;;;;;;;;;23.17;49.21;102228.31;5098664;27;20404;-63
2021/08/23 10:41:15;;;;;;;;;;;;;;;23.18;48.75;102219.25;5105646;27;20058;-63
2021/08/23 10:43:44;;;;;;;;;;;;;;;23.17;48.65;102225.63;5101885;27;20026;-63
2021/08/23 10:46:23;;;;;;;;;;;;;;;23.23;48.68;102223.53;5099311;27;20110;-65
2021/08/23 10:48:51;;;;;;;;;;;;;;;23.20;47.88;102225.44;5100566;27;19938;-65
2021/08/23 10:51:30;;;;;;;;;;;;;;;23.28;48.30;102222.28;5092980;27;20059;-64
2021/08/23 10:53:59;;;;;;;;;;;;;;;23.33;48.45;102224.72;5102844;27;19935;-63
2021/08/23 10:56:34;;;;;;;;;;;;;;;23.33;48.85;102220.19;5104837;27;20022;-64
2021/08/23 10:59:12;;;;;;;;;;;;;;;23.35;48.98;102226.38;5104715;27;19938;-63
2021/08/23 11:01:40;;;;;;;;;;;;;;;23.36;49.21;102225.44;5102497;27;19931;-63
2021/08/23 11:04:09;;;;;;;;;;;;;;;23.41;48.87;102225.16;5100666;27;19931;-65
2021/08/23 11:06:38;;;;;;;;;;;;;;;23.44;48.50;102226.78;5098748;27;19931;-64
2021/08/23 11:09:08;;;;;;;;;;;;;;;23.39;48.41;102218.97;5104227;27;19931;-64
2021/08/23 11:11:37;;;;;;;;;;;;;;;23.38;48.01;102211.84;5108475;27;19931;-64
2021/08/23 11:14:15;;;;;;;;;;;;;;;23.36;48.00;102214.63;5102964;27;20027;-64
2021/08/23 11:16:43;;;;;;;;;;;;;;;23.41;47.87;102211.66;5101231;27;20401;-63
2021/08/23 11:19:14;;;;;;;;;;;;;;;23.50;48.07;102213.78;5097143;27;19935;-65
2021/08/23 11:21:47;;;;;;;;;;;;;;;23.53;48.21;102215.44;5106458;27;20063;-65
2021/08/23 11:24:19;;;;;;;;;;;;;;;23.53;48.43;102213.63;5105367;27;19939;-65
2021/08/23 11:26:53;;;;;;;;;;;;;;;23.50;48.74;102210.25;5102220;27;19931;-65
2021/08/23 11:29:21;;;;;;;;;;;;;;;23.38;49.25;102219.94;5103270;27;19955;-65
2021/08/23 11:31:55;;;;;;;;;;;;;;;23.51;48.84;102214.69;5102036;27;19945;-65
2021/08/23 11:34:24;;;;;;;;;;;;;;;23.50;48.35;102199.44;5099368;27;20124;-65
2021/08/23 11:36:51;;;;;;;;;;;;;;;23.50;48.07;102203.00;5105968;27;20460;-66
2021/08/23 11:39:21;;;;;;;;;;;;;;;23.47;47.81;102207.72;5102195;27;20620;-65
2021/08/23 11:41:56;;;;;;;;;;;;;;;23.49;47.65;102209.34;5096881;27;19931;-65
2021/08/23 11:44:24;;;;;;;;;;;;;;;23.51;47.44;102212.00;5100933;27;19939;-65
2021/08/23 11:46:55;;;;;;;;;;;;;;;23.53;47.36;102213.63;5092749;27;20038;-65
2021/08/23 11:49:27;;;;;;;;;;;;;;;23.53;47.77;102213.63;5093818;27;19931;-65
2021/08/23 11:51:55;;;;;;;;;;;;;;;23.57;48.23;102206.19;5099700;27;19942;-65
2021/08/23 11:54:24;;;;;;;;;;;;;;;23.50;48.37;102210.25;5097892;27;20058;-65
2021/08/23 11:56:52;;;;;;;;;;;;;;;23.58;48.67;102209.78;5099287;27;20772;-65
2021/08/23 11:59:20;;;;;;;;;;;;;;;23.50;48.72;102215.66;5094386;27;19932;-67
2021/08/23 12:01:48;;;;;;;;;;;;;;;23.55;48.29;102208.13;5101228;27;19931;-64
2021/08/23 12:04:22;;;;;;;;;;;;;;;23.58;47.91;102207.09;5099900;27;19988;-64
2021/08/23 12:06:56;;;;;;;;;;;;;;;23.60;47.84;102206.03;5105945;27;20413;-63
2021/08/23 12:09:25;;;;;;;;;;;;;;;23.54;47.77;102209.09;5095044;27;20037;-64
2021/08/23 12:11:53;;;;;;;;;;;;;;;23.53;47.42;102210.94;5099179;27;20024;-64
2021/08/23 12:14:22;;;;;;;;;;;;;;;23.57;47.38;102202.66;5096641;27;19958;-64
2021/08/23 12:16:51;;;;;;;;;;;;;;;23.56;47.37;102207.19;5095058;27;20010;-64
2021/08/23 12:19:19;;;;;;;;;;;;;;;23.46;47.60;102212.25;5100688;27;19931;-64
2021/08/23 12:21:49;;;;;;;;;;;;;;;23.36;47.81;102220.03;5103877;27;20022;-64
2021/08/23 12:24:21;;;;;;;;;;;;;;;23.36;47.74;102216.44;5095813;27;20012;-64
2021/08/23 12:26:52;;;;;;;;;;;;;;;23.27;48.07;102225.97;5100884;27;20018;-64
2021/08/23 12:29:23;;;;;;;;;;;;;;;23.45;48.00;102221.31;5096986;27;20305;-63
2021/08/23 12:31:52;;;;;;;;;;;;;;;23.51;48.07;102218.25;5103628;27;20551;-64
2021/08/23 12:34:21;;;;;;;;;;;;;;;23.52;48.04;102213.69;5100397;27;19951;-64
2021/08/23 12:36:49;;;;;;;;;;;;;;;23.55;47.67;102210.84;5103268;27;20760;-64
2021/08/23 12:39:17;;;;;;;;;;;;;;;23.55;47.63;102210.84;5100877;27;19934;-64
2021/08/23 12:41:46;;;;;;;;;;;;;;;23.48;47.52;102214.84;5093197;27;19928;-64
2021/08/23 12:44:16;;;;;;;;;;;;;;;23.53;47.18;102215.44;5092323;27;19939;-64
2021/08/23 12:46:48;;;;;;;;;;;;;;;23.56;47.40;102214.41;5100026;27;20307;-64